Terminal Aerodrome Forecast
Issued by NWS

Home | Current Version | Previous Version | Text Only | Print | Product List | Glossary On
Versions: 1 2 3 4 5 6 7 8 9 10 11 12 13 14
869
FTUS43 KAPX 261720
TAFMBL
TAF
KMBL 261720Z 2618/2718 22009KT P6SM FEW060 SCT200
     FM262300 23005KT P6SM SCT025 BKN150
     FM270100 23005KT P6SM VCTS SCT045CB BKN120
     FM270500 29009KT P6SM SCT030 BKN070
     FM271300 32010G19KT P6SM BKN030=

USA.gov is the U.S. government's official web portal to all federal, state and local government web resources and services.